createdAt,value
2022-07-28T00:00:05.476Z,2.97
2022-07-28T00:02:36.123Z,4.00
2022-07-28T00:05:04.064Z,5.57
2022-07-28T00:07:31.207Z,5.40
2022-07-28T00:10:00.558Z,3.77
2022-07-28T00:12:28.103Z,8.10
2022-07-28T00:14:55.034Z,4.30
2022-07-28T00:17:21.893Z,5.70
2022-07-28T00:19:49.452Z,5.17
2022-07-28T00:22:17.129Z,5.07
2022-07-28T00:24:44.150Z,3.50
2022-07-28T00:27:10.984Z,4.63
2022-07-28T00:29:49.309Z,4.07
2022-07-28T00:32:20.947Z,5.40
2022-07-28T00:34:48.108Z,4.67
2022-07-28T00:37:15.208Z,3.03
2022-07-28T00:39:42.912Z,5.03
2022-07-28T00:42:10.089Z,3.43
2022-07-28T00:44:39.151Z,3.13
2022-07-28T00:47:06.259Z,5.10
2022-07-28T00:49:33.357Z,8.13
2022-07-28T00:52:00.930Z,6.23
2022-07-28T00:54:27.896Z,5.30
2022-07-28T00:56:54.773Z,3.93
2022-07-28T00:59:21.607Z,5.90
2022-07-28T01:01:49.072Z,3.63
2022-07-28T01:04:16.985Z,4.27
2022-07-28T01:07:05.073Z,2.73
2022-07-28T01:09:53.010Z,3.43
2022-07-28T01:12:25.647Z,4.83
2022-07-28T01:14:54.469Z,4.30
2022-07-28T01:17:55.371Z,3.60
2022-07-28T01:20:32.301Z,3.37
2022-07-28T01:23:12.644Z,9.07
2022-07-28T01:25:57.967Z,7.43
2022-07-28T01:28:30.677Z,2.37
2022-07-28T01:31:02.866Z,4.47
2022-07-28T01:33:41.704Z,3.87
2022-07-28T01:36:33.296Z,3.20
2022-07-28T01:39:01.122Z,6.43
2022-07-28T01:41:31.067Z,3.40
2022-07-28T01:44:13.804Z,3.90
2022-07-28T01:46:43.811Z,5.10
2022-07-28T01:49:12.277Z,4.27
2022-07-28T01:51:41.339Z,5.07
2022-07-28T01:54:10.160Z,7.07
2022-07-28T01:56:38.398Z,4.63
2022-07-28T01:59:09.855Z,3.30
2022-07-28T02:01:41.884Z,5.87
2022-07-28T02:04:11.440Z,7.63
2022-07-28T02:06:40.560Z,5.13
2022-07-28T02:09:09.138Z,7.80
2022-07-28T02:11:40.252Z,7.90
2022-07-28T02:14:11.964Z,6.60
2022-07-28T02:16:41.739Z,8.10
2022-07-28T02:19:09.360Z,5.97
2022-07-28T02:21:38.262Z,4.20
2022-07-28T02:24:07.774Z,6.60
2022-07-28T02:26:38.278Z,6.80
2022-07-28T02:29:08.374Z,6.17
2022-07-28T02:31:44.238Z,4.10
2022-07-28T02:34:14.991Z,6.70
2022-07-28T02:36:51.040Z,4.23
2022-07-28T02:39:23.887Z,6.07
2022-07-28T02:41:58.915Z,5.67
2022-07-28T02:44:30.665Z,4.73
2022-07-28T02:46:59.350Z,6.33
2022-07-28T02:49:31.532Z,3.93
2022-07-28T02:52:03.798Z,4.17
2022-07-28T02:54:32.901Z,4.83
2022-07-28T02:57:00.888Z,4.23
2022-07-28T02:59:28.850Z,4.10
2022-07-28T03:01:57.071Z,6.17
2022-07-28T03:04:43.919Z,7.17
2022-07-28T03:07:11.330Z,8.20
2022-07-28T03:09:44.309Z,6.33
2022-07-28T03:12:11.387Z,6.50
2022-07-28T03:14:39.171Z,4.83
2022-07-28T03:17:07.239Z,4.40
2022-07-28T03:19:34.921Z,11.87
2022-07-28T03:22:02.016Z,5.30
2022-07-28T03:24:32.474Z,4.30
2022-07-28T03:27:22.831Z,6.10
2022-07-28T03:30:03.162Z,6.77
2022-07-28T03:32:32.894Z,6.83
2022-07-28T03:35:00.761Z,5.63
2022-07-28T03:37:47.408Z,5.90
2022-07-28T03:40:15.123Z,5.07
2022-07-28T03:42:47.817Z,5.60
2022-07-28T03:45:18.279Z,5.63
2022-07-28T03:47:56.754Z,9.60
2022-07-28T03:50:25.518Z,4.13
2022-07-28T03:52:53.599Z,5.17
2022-07-28T03:55:20.588Z,8.27
2022-07-28T03:57:47.573Z,7.17
2022-07-28T04:00:16.604Z,9.10
2022-07-28T04:02:44.671Z,5.80
2022-07-28T04:05:12.430Z,5.53
2022-07-28T04:07:40.338Z,6.57
2022-07-28T04:10:09.634Z,6.33
2022-07-28T04:12:53.257Z,7.57
2022-07-28T04:15:20.189Z,7.20
2022-07-28T04:17:50.929Z,5.53
2022-07-28T04:20:19.522Z,7.77
2022-07-28T04:22:47.086Z,6.97
2022-07-28T04:25:15.065Z,6.07
2022-07-28T04:27:43.329Z,6.73
2022-07-28T04:30:17.284Z,8.87
2022-07-28T04:32:45.773Z,5.63
2022-07-28T04:35:17.281Z,7.77
2022-07-28T04:37:46.261Z,7.63
2022-07-28T04:40:14.499Z,7.33
2022-07-28T04:42:42.024Z,8.47
2022-07-28T04:45:11.788Z,8.43
2022-07-28T04:47:39.925Z,7.60
2022-07-28T04:50:08.587Z,8.67
2022-07-28T04:52:36.508Z,7.83
2022-07-28T04:55:04.903Z,7.33
2022-07-28T04:57:31.860Z,7.73
2022-07-28T05:00:00.308Z,8.20
2022-07-28T05:02:27.746Z,9.47
2022-07-28T05:04:54.733Z,9.23
2022-07-28T05:07:21.648Z,7.13
2022-07-28T05:09:48.461Z,7.97
2022-07-28T05:12:15.840Z,8.27
2022-07-28T05:14:43.017Z,7.33
2022-07-28T05:17:10.272Z,9.17
2022-07-28T05:19:37.532Z,7.37
2022-07-28T05:22:04.572Z,10.37
2022-07-28T05:24:31.903Z,9.77
2022-07-28T05:26:58.702Z,7.80
2022-07-28T05:29:25.829Z,8.10
2022-07-28T05:32:17.235Z,5.87
2022-07-28T05:34:45.581Z,12.93
2022-07-28T05:37:12.642Z,9.80
2022-07-28T05:39:39.625Z,7.67
2022-07-28T05:42:06.781Z,7.33
2022-07-28T05:44:37.898Z,10.90
2022-07-28T05:47:05.773Z,10.97
2022-07-28T05:49:32.804Z,8.33
2022-07-28T05:51:59.922Z,8.27
2022-07-28T05:54:26.854Z,7.03
2022-07-28T05:56:53.924Z,6.93
2022-07-28T05:59:20.762Z,6.17
2022-07-28T06:01:47.737Z,8.20
2022-07-28T06:04:30.406Z,5.83
2022-07-28T06:06:57.733Z,10.20
2022-07-28T06:09:24.624Z,7.97
2022-07-28T06:11:51.465Z,9.70
2022-07-28T06:14:19.076Z,5.77
2022-07-28T06:16:51.248Z,7.20
2022-07-28T06:19:19.312Z,5.53
2022-07-28T06:21:47.507Z,5.00
2022-07-28T06:24:14.958Z,3.67
2022-07-28T06:26:45.930Z,3.27
2022-07-28T06:29:19.642Z,4.30
2022-07-28T06:31:46.996Z,5.77
2022-07-28T06:34:14.464Z,5.53
2022-07-28T06:36:41.635Z,3.93
2022-07-28T06:39:11.147Z,6.07
2022-07-28T06:41:41.589Z,5.40
2022-07-28T06:44:09.254Z,7.23
2022-07-28T06:46:36.557Z,5.93
2022-07-28T06:49:04.696Z,3.03
2022-07-28T06:51:32.262Z,4.17
2022-07-28T06:53:59.204Z,6.80
2022-07-28T06:56:26.534Z,3.77
2022-07-28T06:58:53.591Z,6.50
2022-07-28T07:01:20.711Z,5.15
2022-07-28T07:03:47.636Z,3.67
2022-07-28T07:06:14.859Z,3.87
2022-07-28T07:08:42.218Z,4.17
2022-07-28T07:11:10.401Z,3.80
2022-07-28T07:13:37.278Z,7.73
2022-07-28T07:16:04.541Z,2.53
2022-07-28T07:18:31.426Z,3.37
2022-07-28T07:20:58.322Z,4.93
2022-07-28T07:23:25.248Z,3.83
2022-07-28T07:25:52.799Z,6.33
2022-07-28T07:28:19.780Z,6.27
2022-07-28T07:30:46.634Z,3.47
2022-07-28T07:33:13.499Z,5.37
2022-07-28T07:35:40.395Z,5.23
2022-07-28T07:38:07.329Z,2.93
2022-07-28T07:40:34.227Z,3.93
2022-07-28T07:43:01.210Z,3.93
2022-07-28T07:45:28.592Z,3.77
2022-07-28T07:47:55.538Z,6.40
2022-07-28T07:50:22.760Z,4.47
2022-07-28T07:52:52.324Z,2.40
2022-07-28T07:55:19.232Z,5.63
2022-07-28T07:57:46.126Z,3.87
2022-07-28T08:00:28.558Z,3.57
2022-07-28T08:02:58.101Z,4.57
2022-07-28T08:05:34.850Z,4.27
2022-07-28T08:08:04.861Z,3.87
2022-07-28T08:10:32.244Z,6.90
2022-07-28T08:12:59.893Z,4.27
2022-07-28T08:15:26.727Z,4.20
2022-07-28T08:17:53.795Z,3.97
2022-07-28T08:20:20.862Z,2.77
2022-07-28T08:22:49.199Z,3.27
2022-07-28T08:25:16.398Z,3.57
2022-07-28T08:27:43.367Z,1.90
2022-07-28T08:30:11.791Z,4.40
2022-07-28T08:32:38.828Z,2.13
2022-07-28T08:35:31.616Z,3.83
2022-07-28T08:37:53.518Z,4.68
2022-07-28T08:40:23.460Z,3.20
2022-07-28T08:43:03.286Z,3.38
2022-07-28T08:45:35.522Z,5.97
2022-07-28T08:48:08.659Z,4.18
2022-07-28T08:50:40.716Z,5.07
2022-07-28T08:53:08.791Z,4.45
2022-07-28T08:55:37.033Z,2.63
2022-07-28T08:58:04.660Z,4.38
2022-07-28T09:00:31.605Z,4.18
2022-07-28T09:03:00.382Z,6.70
2022-07-28T09:05:28.067Z,2.85
2022-07-28T09:07:55.849Z,3.70
2022-07-28T09:10:24.205Z,5.22
2022-07-28T09:12:51.679Z,2.70
2022-07-28T09:15:18.744Z,4.18
2022-07-28T09:17:46.045Z,2.50
2022-07-28T09:20:15.915Z,2.40
2022-07-28T09:22:59.381Z,3.97
2022-07-28T09:25:27.860Z,3.55
2022-07-28T09:27:55.291Z,3.97
2022-07-28T09:30:33.904Z,3.13
2022-07-28T09:33:43.280Z,3.20
2022-07-28T09:36:16.990Z,3.20
2022-07-28T09:38:47.633Z,3.28
2022-07-28T09:41:19.770Z,2.28
2022-07-28T09:43:52.538Z,2.85
2022-07-28T09:46:24.075Z,2.60
2022-07-28T09:48:58.323Z,3.40
2022-07-28T09:51:31.181Z,4.07
2022-07-28T09:54:13.528Z,4.15
2022-07-28T09:56:45.810Z,3.10
2022-07-28T09:59:14.566Z,2.95
2022-07-28T10:02:00.834Z,4.05
2022-07-28T10:04:39.418Z,2.38
2022-07-28T10:07:17.283Z,2.75
2022-07-28T10:09:55.362Z,4.10
2022-07-28T10:12:24.997Z,3.42
2022-07-28T10:14:59.495Z,5.13
2022-07-28T10:17:34.620Z,3.88
2022-07-28T10:20:06.862Z,4.88
2022-07-28T10:22:42.889Z,3.35
2022-07-28T10:25:13.746Z,5.97
2022-07-28T10:27:41.964Z,2.25
2022-07-28T10:30:09.817Z,2.83
2022-07-28T10:32:43.518Z,1.98
2022-07-28T10:35:12.950Z,4.15
2022-07-28T10:37:45.880Z,1.92
2022-07-28T10:40:13.895Z,5.70
2022-07-28T10:42:41.412Z,4.25
2022-07-28T10:45:11.146Z,3.65
2022-07-28T10:47:38.626Z,3.72
2022-07-28T10:50:06.399Z,4.40
2022-07-28T10:52:47.139Z,3.15
2022-07-28T10:55:33.482Z,4.70
2022-07-28T10:58:17.239Z,2.20
2022-07-28T11:00:56.597Z,3.28
2022-07-28T11:03:43.795Z,1.80
2022-07-28T11:06:31.775Z,2.08
2022-07-28T11:09:20.561Z,1.60
2022-07-28T11:11:59.763Z,2.22
2022-07-28T11:14:27.081Z,2.85
2022-07-28T11:17:10.202Z,2.95
2022-07-28T11:20:07.191Z,3.22
2022-07-28T11:22:32.147Z,3.08
2022-07-28T11:25:18.501Z,2.65
2022-07-28T11:27:52.697Z,3.40
2022-07-28T11:30:21.300Z,4.78
2022-07-28T11:32:51.599Z,3.78
2022-07-28T11:35:20.081Z,2.70
2022-07-28T11:38:02.140Z,3.17
2022-07-28T11:40:33.680Z,2.95
2022-07-28T11:43:28.581Z,3.05
2022-07-28T11:46:10.422Z,5.40
2022-07-28T11:48:40.664Z,2.58
2022-07-28T11:51:07.751Z,3.20
2022-07-28T11:53:42.495Z,2.58
2022-07-28T11:56:13.607Z,2.35
2022-07-28T11:58:42.315Z,2.67
2022-07-28T12:01:19.093Z,3.90
2022-07-28T12:03:55.534Z,2.13
2022-07-28T12:06:29.015Z,2.08
2022-07-28T12:08:58.996Z,4.20
2022-07-28T12:11:28.417Z,2.60
2022-07-28T12:14:03.039Z,2.83
2022-07-28T12:16:31.606Z,2.10
2022-07-28T12:19:02.638Z,3.92
2022-07-28T12:21:45.986Z,2.55
2022-07-28T12:24:18.677Z,3.08
2022-07-28T12:26:49.691Z,3.33
2022-07-28T12:29:17.471Z,1.55
2022-07-28T12:32:05.294Z,3.08
2022-07-28T12:34:35.028Z,1.30
2022-07-28T12:37:09.719Z,4.03
2022-07-28T12:39:39.721Z,5.65
2022-07-28T12:42:09.080Z,2.40
2022-07-28T12:44:40.574Z,2.47
2022-07-28T12:47:12.608Z,2.25
2022-07-28T12:49:41.885Z,3.67
2022-07-28T12:52:23.811Z,1.38
2022-07-28T12:54:55.166Z,3.78
2022-07-28T12:57:48.682Z,1.95
2022-07-28T13:00:19.227Z,1.38
2022-07-28T13:02:46.887Z,2.53
2022-07-28T13:05:33.413Z,4.93
2022-07-28T13:08:06.162Z,3.20
2022-07-28T13:10:33.483Z,4.35
2022-07-28T13:13:07.246Z,2.22
2022-07-28T13:15:34.577Z,3.13
2022-07-28T13:18:01.570Z,1.98
2022-07-28T13:20:28.614Z,2.60
2022-07-28T13:22:57.406Z,4.90
2022-07-28T13:25:25.209Z,2.67
2022-07-28T13:27:55.697Z,2.80
2022-07-28T13:30:23.644Z,4.22
2022-07-28T13:32:50.778Z,2.70
2022-07-28T13:35:19.011Z,2.90
2022-07-28T13:37:48.572Z,1.48
2022-07-28T13:40:15.682Z,2.67
2022-07-28T13:42:52.905Z,3.17
2022-07-28T13:45:23.700Z,2.38
2022-07-28T13:47:51.916Z,4.15
2022-07-28T13:50:19.725Z,1.83
2022-07-28T13:52:48.448Z,2.88
2022-07-28T13:55:19.594Z,1.77
2022-07-28T13:57:50.701Z,4.60
2022-07-28T14:00:19.433Z,2.67
2022-07-28T14:02:49.804Z,3.03
2022-07-28T14:05:16.757Z,6.03
2022-07-28T14:07:48.767Z,2.53
2022-07-28T14:10:17.852Z,3.08
2022-07-28T14:12:46.303Z,2.53
2022-07-28T14:15:14.268Z,2.80
2022-07-28T14:17:43.380Z,3.47
2022-07-28T14:20:15.828Z,2.35
2022-07-28T14:22:44.352Z,2.38
2022-07-28T14:25:19.542Z,1.83
2022-07-28T14:27:48.951Z,2.28
2022-07-28T14:30:15.823Z,2.30
2022-07-28T14:32:42.755Z,3.28
2022-07-28T14:35:09.975Z,5.35
2022-07-28T14:38:11.281Z,1.92
2022-07-28T14:40:23.930Z,4.30
2022-07-28T14:42:50.912Z,2.22
2022-07-28T14:45:18.052Z,1.73
2022-07-28T14:47:45.642Z,4.13
2022-07-28T14:50:13.277Z,5.95
2022-07-28T14:52:40.609Z,1.15
2022-07-28T14:55:12.452Z,1.92
2022-07-28T14:57:52.187Z,7.10
2022-07-28T15:00:23.027Z,1.30
2022-07-28T15:02:51.829Z,2.03
2022-07-28T15:05:19.711Z,2.05
2022-07-28T15:07:49.529Z,2.67
2022-07-28T15:10:16.618Z,1.60
2022-07-28T15:12:43.675Z,2.72
2022-07-28T15:15:11.680Z,2.80
2022-07-28T15:17:38.822Z,2.53
2022-07-28T15:20:07.231Z,1.23
2022-07-28T15:22:34.621Z,2.58
2022-07-28T15:25:01.508Z,3.95
2022-07-28T15:27:33.367Z,2.85
2022-07-28T15:30:03.650Z,2.78
2022-07-28T15:32:39.846Z,1.88
2022-07-28T15:35:21.714Z,2.60
2022-07-28T15:37:48.615Z,2.97
2022-07-28T15:40:15.838Z,1.85
2022-07-28T15:42:43.334Z,2.88
2022-07-28T15:45:10.942Z,3.80
2022-07-28T15:47:37.927Z,1.80
2022-07-28T15:50:06.168Z,2.25
2022-07-28T15:52:33.350Z,4.90
2022-07-28T15:55:00.271Z,2.60
2022-07-28T15:57:27.159Z,3.08
2022-07-28T16:00:06.271Z,2.97
2022-07-28T16:02:33.181Z,1.80
2022-07-28T16:05:01.152Z,3.22
2022-07-28T16:07:29.539Z,1.80
2022-07-28T16:09:56.745Z,3.50
2022-07-28T16:12:29.600Z,1.85
2022-07-28T16:14:56.677Z,2.75
2022-07-28T16:17:24.515Z,2.28
2022-07-28T16:19:52.069Z,2.45
2022-07-28T16:22:19.767Z,4.32
2022-07-28T16:24:47.103Z,3.33
2022-07-28T16:27:14.933Z,1.83
2022-07-28T16:29:42.391Z,1.77
2022-07-28T16:32:09.706Z,2.70
2022-07-28T16:34:36.702Z,2.65
2022-07-28T16:37:05.824Z,1.83
2022-07-28T16:39:33.642Z,3.40
2022-07-28T16:42:01.641Z,2.00
2022-07-28T16:44:29.231Z,3.28
2022-07-28T16:46:56.507Z,1.95
2022-07-28T16:49:24.333Z,2.72
2022-07-28T16:51:51.431Z,3.75
2022-07-28T16:54:18.780Z,2.50
2022-07-28T16:56:46.013Z,3.08
2022-07-28T16:59:13.104Z,2.72
2022-07-28T17:01:45.560Z,2.25
2022-07-28T17:04:13.981Z,4.47
2022-07-28T17:06:41.467Z,5.13
2022-07-28T17:09:08.395Z,3.08
2022-07-28T17:11:35.739Z,4.03
2022-07-28T17:14:03.384Z,4.90
2022-07-28T17:16:30.968Z,2.85
2022-07-28T17:18:57.991Z,4.05
2022-07-28T17:21:25.787Z,2.60
2022-07-28T17:23:53.210Z,2.28
2022-07-28T17:29:07.409Z,4.82
2022-07-28T17:31:34.334Z,2.33
2022-07-28T17:34:01.543Z,5.15
2022-07-28T17:36:29.340Z,4.55
2022-07-28T17:38:56.206Z,2.17
2022-07-28T17:41:23.098Z,6.38
2022-07-28T17:43:49.972Z,7.07
2022-07-28T17:46:17.570Z,2.55
2022-07-28T17:48:48.363Z,4.18
2022-07-28T17:51:18.311Z,3.00
2022-07-28T17:53:45.625Z,5.18
2022-07-28T17:56:12.920Z,4.80
2022-07-28T17:58:40.824Z,2.08
2022-07-28T18:01:13.931Z,2.95
2022-07-28T18:03:57.156Z,4.00
2022-07-28T18:06:33.527Z,3.80
2022-07-28T18:09:06.979Z,6.00
2022-07-28T18:11:55.421Z,3.17
2022-07-28T18:14:26.894Z,4.18
2022-07-28T18:16:54.006Z,4.35
2022-07-28T18:19:21.158Z,3.33
2022-07-28T18:21:48.585Z,2.43
2022-07-28T18:24:15.779Z,5.07
2022-07-28T18:26:43.102Z,3.33
2022-07-28T18:29:14.791Z,3.10
2022-07-28T18:31:46.399Z,3.93
2022-07-28T18:34:17.563Z,2.93
2022-07-28T18:36:44.775Z,3.23
2022-07-28T18:39:12.670Z,3.50
2022-07-28T18:41:46.253Z,2.70
2022-07-28T18:44:14.087Z,4.70
2022-07-28T18:46:41.687Z,4.97
2022-07-28T18:49:08.728Z,3.40
2022-07-28T18:51:35.690Z,3.90
2022-07-28T18:54:02.587Z,5.63
2022-07-28T18:56:29.439Z,8.40
2022-07-28T18:58:57.287Z,4.00
2022-07-28T19:01:24.296Z,3.10
2022-07-28T19:03:51.217Z,5.53
2022-07-28T19:06:18.444Z,4.67
2022-07-28T19:08:45.427Z,3.40
2022-07-28T19:11:13.517Z,3.40
2022-07-28T19:13:41.982Z,4.43
2022-07-28T19:16:09.213Z,5.67
2022-07-28T19:18:36.095Z,5.03
2022-07-28T19:21:03.093Z,4.23
2022-07-28T19:23:30.435Z,4.33
2022-07-28T19:25:57.757Z,4.27
2022-07-28T19:28:24.831Z,5.80
2022-07-28T19:30:51.851Z,3.40
2022-07-28T19:33:25.677Z,3.43
2022-07-28T19:35:52.503Z,3.30
2022-07-28T19:38:19.504Z,2.57
2022-07-28T19:40:46.444Z,9.00
2022-07-28T19:43:13.358Z,4.30
2022-07-28T19:45:40.579Z,6.70
2022-07-28T19:48:09.192Z,9.00
2022-07-28T19:51:03.695Z,7.27
2022-07-28T19:53:37.767Z,3.03
2022-07-28T19:56:37.369Z,3.37
2022-07-28T19:59:04.347Z,3.40
2022-07-28T20:01:31.646Z,3.03
2022-07-28T20:04:02.237Z,8.03
2022-07-28T20:06:32.294Z,7.03
2022-07-28T20:08:59.952Z,3.80
2022-07-28T20:11:26.892Z,5.07
2022-07-28T20:13:53.767Z,6.47
2022-07-28T20:16:23.655Z,4.90
2022-07-28T20:18:52.203Z,5.63
2022-07-28T20:21:21.366Z,5.10
2022-07-28T20:23:49.196Z,5.43
2022-07-28T20:26:28.207Z,5.77
2022-07-28T20:28:58.400Z,5.73
2022-07-28T20:31:29.959Z,5.47
2022-07-28T20:33:57.410Z,7.77
2022-07-28T20:36:29.395Z,4.33
2022-07-28T20:38:57.327Z,4.03
2022-07-28T20:41:24.544Z,14.47
2022-07-28T20:44:11.282Z,6.57
2022-07-28T20:46:44.540Z,5.27
2022-07-28T20:49:16.763Z,7.60
2022-07-28T20:51:50.647Z,5.73
2022-07-28T20:54:18.939Z,4.87
2022-07-28T20:56:45.893Z,4.67
2022-07-28T20:59:13.448Z,3.60
2022-07-28T21:01:41.169Z,7.93
2022-07-28T21:04:46.512Z,6.23
2022-07-28T21:08:00.459Z,6.30
2022-07-28T21:10:08.565Z,5.77
2022-07-28T21:12:37.378Z,7.03
2022-07-28T21:15:16.578Z,5.30
2022-07-28T21:17:43.502Z,7.70
2022-07-28T21:20:10.784Z,5.17
2022-07-28T21:22:37.620Z,7.77
2022-07-28T21:25:05.093Z,5.33
2022-07-28T21:27:51.893Z,4.97
2022-07-28T21:30:28.110Z,3.93
2022-07-28T21:35:48.855Z,4.47
2022-07-28T21:38:15.980Z,5.93
2022-07-28T21:40:42.902Z,7.53
2022-07-28T21:43:10.009Z,5.10
2022-07-28T21:45:37.038Z,5.00
2022-07-28T21:48:04.043Z,7.73
2022-07-28T21:50:30.909Z,8.33
2022-07-28T21:52:57.983Z,5.93
2022-07-28T21:55:25.561Z,5.83
2022-07-28T21:57:52.622Z,5.03
2022-07-28T22:00:22.324Z,8.37
2022-07-28T22:02:49.316Z,5.93
2022-07-28T22:05:17.005Z,7.10
2022-07-28T22:07:44.020Z,6.23
2022-07-28T22:10:10.993Z,6.80
2022-07-28T22:12:38.184Z,5.20
2022-07-28T22:15:05.479Z,6.23
2022-07-28T22:17:32.921Z,6.50
2022-07-28T22:19:59.742Z,7.93
2022-07-28T22:22:26.679Z,5.67
2022-07-28T22:24:54.147Z,7.73
2022-07-28T22:27:21.249Z,6.27
2022-07-28T22:29:51.935Z,5.47
2022-07-28T22:32:26.790Z,7.47
2022-07-28T22:34:56.941Z,7.17
2022-07-28T22:37:23.803Z,6.37
2022-07-28T22:39:50.655Z,4.73
2022-07-28T22:42:17.461Z,11.60
2022-07-28T22:44:44.316Z,16.83
2022-07-28T22:47:11.155Z,10.90
2022-07-28T22:49:39.007Z,7.50
2022-07-28T22:52:08.942Z,6.07
2022-07-28T22:54:40.093Z,7.13
2022-07-28T22:57:07.576Z,6.10
2022-07-28T22:59:38.465Z,8.83
2022-07-28T23:02:07.153Z,9.50
2022-07-28T23:04:34.070Z,14.60
2022-07-28T23:07:01.126Z,9.53
2022-07-28T23:09:28.147Z,7.83
2022-07-28T23:11:55.886Z,8.27
2022-07-28T23:14:23.442Z,9.73
2022-07-28T23:16:50.561Z,12.70
2022-07-28T23:19:17.894Z,10.50
2022-07-28T23:21:45.313Z,8.30
2022-07-28T23:24:12.480Z,12.50
2022-07-28T23:26:39.713Z,8.17
2022-07-28T23:29:06.602Z,11.43
2022-07-28T23:31:33.813Z,11.13
2022-07-28T23:34:00.820Z,12.50
2022-07-28T23:36:28.225Z,8.63
2022-07-28T23:38:57.471Z,10.07
2022-07-28T23:41:25.162Z,9.27
2022-07-28T23:43:52.283Z,9.43
2022-07-28T23:46:19.259Z,10.63
2022-07-28T23:48:46.362Z,11.37
2022-07-28T23:51:14.210Z,12.53
2022-07-28T23:53:43.917Z,12.37
2022-07-28T23:56:10.842Z,8.30
2022-07-28T23:58:37.890Z,10.70
